Time;durP1;ratioP1;P1;durP2;ratioP2;P2;SDS_P1;SDS_P2;PMS_P1;PMS_P2;Temp;Humidity;BMP_temperature;BMP_pressure;BME280_temperature;BME280_humidity;BME280_pressure;Samples;Min_cycle;Max_cycle;Signal;HPM_P1;HPM_P2
2022/02/11 00:01:25;;;;;;;7.70;3.83;;;7.20;91.70;;;;;;5064468;28;20028;-81
2022/02/11 00:08:50;;;;;;;5.50;3.88;;;7.30;91.60;;;;;;5058854;28;20048;-81
2022/02/11 00:11:19;;;;;;;3.80;3.00;;;7.30;91.60;;;;;;5060368;28;20024;-81
2022/02/11 00:13:45;;;;;;;5.35;3.90;;;7.40;91.60;;;;;;5040224;28;20025;-81
2022/02/11 00:16:10;;;;;;;11.68;5.13;;;7.30;91.90;;;;;;5039130;28;20025;-80
2022/02/11 00:18:36;;;;;;;12.13;5.53;;;7.30;91.70;;;;;;5056658;28;20028;-80
2022/02/11 00:21:02;;;;;;;9.70;4.97;;;7.30;91.90;;;;;;5055615;28;20033;-80
2022/02/11 00:23:30;;;;;;;7.93;4.40;;;7.30;92.00;;;;;;5054538;28;20030;-80
2022/02/11 00:26:01;;;;;;;6.32;3.88;;;7.30;92.10;;;;;;5039036;28;20488;-80
2022/02/11 00:33:41;;;;;;;6.60;3.75;;;7.30;92.30;;;;;;5056717;28;20481;-80
2022/02/11 00:36:09;;;;;;;7.80;4.10;;;7.30;92.40;;;;;;5056834;28;20609;-80
2022/02/11 00:39:02;;;;;;;9.43;4.25;;;7.30;92.50;;;;;;5055615;28;20080;-80
2022/02/11 01:03:12;;;;;;;7.45;3.50;;;7.10;94.70;;;;;;5060662;28;20039;-79
2022/02/11 01:05:38;;;;;;;6.70;3.90;;;7.00;95.20;;;;;;5074381;22;20406;-78
2022/02/11 01:08:04;;;;;;;6.90;4.10;;;6.90;95.60;;;;;;5028041;28;20045;-80
2022/02/11 01:10:32;;;;;;;6.95;3.55;;;6.90;95.90;;;;;;5045406;28;20064;-79
2022/02/11 01:12:58;;;;;;;6.07;3.67;;;6.80;96.10;;;;;;5046434;28;20014;-79
2022/02/11 01:15:25;;;;;;;5.13;3.40;;;6.80;96.30;;;;;;5047134;28;20089;-79
2022/02/11 01:17:56;;;;;;;5.65;3.30;;;6.80;96.60;;;;;;5023859;28;20106;-78
2022/02/11 01:20:30;;;;;;;3.75;2.90;;;6.90;96.80;;;;;;5024914;28;20022;-79
2022/02/11 01:33:21;;;;;;;7.05;3.40;;;6.90;97.40;;;;;;5028402;28;20026;-79
2022/02/11 01:42:35;;;;;;;8.35;3.40;;;7.00;97.10;;;;;;5024590;28;20029;-79
2022/02/11 01:44:40;;;;;;;7.33;3.40;;;7.00;96.90;;;;;;5025034;28;20129;-79
2022/02/11 02:00:38;;;;;;;4.80;3.20;;;7.20;96.30;;;;;;5026706;28;20037;-79
2022/02/11 02:17:33;;;;;;;4.72;2.92;;;7.30;96.50;;;;;;4985008;28;20559;-78
2022/02/11 02:21:04;;;;;;;12.90;4.65;;;7.20;96.70;;;;;;4991174;28;20030;-79
2022/02/11 02:25:17;;;;;;;6.20;3.33;;;7.20;97.00;;;;;;4985976;28;20034;-78
2022/02/11 02:28:00;;;;;;;5.60;3.33;;;7.10;97.30;;;;;;4988243;28;20033;-76
2022/02/11 02:37:10;;;;;;;5.72;3.45;;;7.00;98.20;;;;;;4991491;28;20045;-78
2022/02/11 02:58:23;;;;;;;14.30;5.95;;;6.90;99.90;;;;;;5029959;28;20032;-78
2022/02/11 03:01:13;;;;;;;16.42;6.40;;;6.90;99.90;;;;;;5029501;28;20401;-79
2022/02/11 04:20:10;;;;;;;6.38;2.90;;;6.40;99.90;;;;;;5024241;28;20680;-80
2022/02/11 04:55:26;;;;;;;5.57;1.95;;;6.20;99.90;;;;;;5026015;28;20060;-78
2022/02/11 05:00:39;;;;;;;2.70;2.10;;;6.10;99.90;;;;;;5025225;28;20041;-78
2022/02/11 05:03:06;;;;;;;2.72;1.95;;;6.10;99.90;;;;;;5025828;28;20025;-79
2022/02/11 05:05:49;;;;;;;2.60;1.80;;;6.10;99.90;;;;;;5000965;28;20038;-80
2022/02/11 05:08:23;;;;;;;1.75;1.45;;;6.10;99.90;;;;;;5011159;28;20030;-79
2022/02/11 05:10:51;;;;;;;1.42;1.33;;;6.00;99.90;;;;;;5011773;28;20029;-79
2022/02/11 05:13:21;;;;;;;1.65;1.33;;;6.00;99.90;;;;;;5011389;28;20026;-79
2022/02/11 05:15:47;;;;;;;3.15;1.60;;;6.00;99.90;;;;;;5009920;28;20049;-79
2022/02/11 05:18:14;;;;;;;3.95;1.60;;;6.00;99.90;;;;;;5010040;28;20049;-81
2022/02/11 05:20:43;;;;;;;1.77;1.27;;;6.00;99.90;;;;;;5015743;28;20057;-80
2022/02/11 05:23:13;;;;;;;2.97;1.80;;;6.00;99.90;;;;;;5010189;28;20030;-81
2022/02/11 05:25:40;;;;;;;2.08;1.77;;;6.10;99.90;;;;;;5008651;28;20025;-80
2022/02/11 05:28:11;;;;;;;2.47;1.58;;;6.00;99.90;;;;;;5011293;28;20026;-78
2022/02/11 05:30:38;;;;;;;2.45;1.70;;;6.10;99.90;;;;;;4995808;28;20038;-79
2022/02/11 05:33:05;;;;;;;5.95;1.92;;;6.10;99.90;;;;;;5013636;28;20031;-77
2022/02/11 05:35:31;;;;;;;3.67;1.85;;;6.10;99.90;;;;;;4997415;28;20094;-77
2022/02/11 05:37:57;;;;;;;2.90;2.28;;;6.00;99.90;;;;;;5028890;28;20013;-80
2022/02/11 05:40:23;;;;;;;3.80;2.05;;;6.10;99.90;;;;;;5035095;28;20022;-77
2022/02/11 05:42:50;;;;;;;3.40;1.58;;;6.00;99.90;;;;;;5034334;28;20025;-77
2022/02/11 05:45:16;;;;;;;3.85;1.70;;;6.10;99.90;;;;;;5031587;28;20030;-78
2022/02/11 05:47:42;;;;;;;3.67;1.73;;;6.00;99.90;;;;;;5030713;28;20030;-77
2022/02/11 05:50:11;;;;;;;3.65;1.90;;;6.00;99.90;;;;;;5030430;28;20053;-79
2022/02/11 05:52:37;;;;;;;5.10;2.92;;;6.00;99.90;;;;;;5032352;28;20037;-78
2022/02/11 05:55:04;;;;;;;8.30;5.28;;;6.00;99.90;;;;;;5029067;28;20029;-79
2022/02/11 05:57:30;;;;;;;6.30;5.07;;;6.00;99.90;;;;;;5029037;28;20089;-76
2022/02/11 05:59:56;;;;;;;7.88;5.63;;;5.80;99.90;;;;;;5029332;28;20030;-80
2022/02/11 06:02:22;;;;;;;11.10;6.88;;;5.50;99.90;;;;;;5029257;28;20029;-77
2022/02/11 06:04:48;;;;;;;11.13;6.55;;;5.30;99.90;;;;;;5027543;28;20049;-78
2022/02/11 06:07:14;;;;;;;12.07;8.07;;;5.10;99.90;;;;;;5025823;28;20046;-79
2022/02/11 06:09:40;;;;;;;14.27;7.32;;;4.90;99.90;;;;;;5029622;28;20097;-77
2022/02/11 06:12:07;;;;;;;10.80;7.50;;;4.80;99.90;;;;;;5016924;28;20025;-77
2022/02/11 06:14:38;;;;;;;13.35;8.32;;;4.70;99.90;;;;;;5034058;28;20110;-78
2022/02/11 06:17:04;;;;;;;13.40;9.05;;;4.60;99.90;;;;;;5034467;28;20037;-77
2022/02/11 06:19:30;;;;;;;15.15;9.88;;;4.50;99.90;;;;;;5034332;28;20030;-77
2022/02/11 06:21:56;;;;;;;17.13;8.73;;;4.50;99.90;;;;;;5036226;28;20042;-79
2022/02/11 06:24:21;;;;;;;13.05;8.82;;;4.50;99.90;;;;;;5034466;28;20109;-77
2022/02/11 06:26:47;;;;;;;14.80;9.05;;;4.50;99.90;;;;;;5038346;28;20022;-77
2022/02/11 06:29:14;;;;;;;13.90;9.02;;;4.50;99.90;;;;;;5019870;28;20030;-79
2022/02/11 06:31:40;;;;;;;13.80;8.38;;;4.50;99.90;;;;;;5031432;28;20117;-78
2022/02/11 06:34:06;;;;;;;13.45;7.43;;;4.60;99.90;;;;;;5032833;28;20390;-78
2022/02/11 06:36:33;;;;;;;15.75;7.57;;;4.60;99.90;;;;;;5029659;28;20026;-80
2022/02/11 06:38:58;;;;;;;14.85;7.40;;;4.60;99.90;;;;;;5032612;28;20030;-80
2022/02/11 06:41:24;;;;;;;14.02;7.30;;;4.60;99.90;;;;;;5030124;28;20030;-79
2022/02/11 06:43:51;;;;;;;11.70;6.10;;;4.60;99.90;;;;;;5017726;28;20022;-79
2022/02/11 06:46:17;;;;;;;12.80;6.70;;;4.60;99.90;;;;;;5017012;28;20053;-80
2022/02/11 06:48:44;;;;;;;10.48;5.30;;;4.70;99.90;;;;;;5016618;28;20033;-79
2022/02/11 06:51:10;;;;;;;11.50;6.82;;;4.70;99.90;;;;;;4999590;28;20041;-80
2022/02/11 06:53:36;;;;;;;10.40;5.45;;;4.70;99.90;;;;;;5017037;28;20038;-79
2022/02/11 06:56:03;;;;;;;9.35;6.10;;;4.70;99.90;;;;;;5016320;28;20027;-79
2022/02/11 06:58:29;;;;;;;10.57;5.70;;;4.60;99.90;;;;;;5015663;28;20033;-81
2022/02/11 07:00:55;;;;;;;11.20;6.13;;;4.60;99.90;;;;;;5007892;28;20078;-81
2022/02/11 07:03:23;;;;;;;6.00;3.97;;;4.60;99.90;;;;;;5016931;28;20033;-81
2022/02/11 07:05:51;;;;;;;7.18;4.70;;;4.50;99.90;;;;;;5016123;28;20034;-81
2022/02/11 07:08:18;;;;;;;8.38;5.10;;;4.50;99.90;;;;;;5016998;28;20046;-82
2022/02/11 07:10:44;;;;;;;6.57;4.13;;;4.40;99.90;;;;;;5035345;28;20034;-80
2022/02/11 07:13:13;;;;;;;6.60;4.30;;;4.30;99.90;;;;;;5032232;28;20097;-80
2022/02/11 07:16:18;;;;;;;5.68;4.22;;;4.30;99.90;;;;;;5018334;28;20011;-82
2022/02/11 07:18:44;;;;;;;7.53;5.10;;;4.30;99.90;;;;;;4978310;28;20041;-83
2022/02/11 07:21:10;;;;;;;8.00;4.82;;;4.20;99.90;;;;;;5018006;28;20034;-83
2022/02/11 07:23:36;;;;;;;6.43;3.92;;;4.30;99.90;;;;;;5018446;28;20010;-82
2022/02/11 07:26:01;;;;;;;6.43;3.85;;;4.30;99.90;;;;;;5001019;28;20014;-83
2022/02/11 07:28:27;;;;;;;8.57;5.20;;;4.30;99.90;;;;;;5017920;28;20050;-82
2022/02/11 07:30:53;;;;;;;5.15;4.13;;;4.20;99.90;;;;;;5019343;28;20046;-82
2022/02/11 07:33:19;;;;;;;5.82;3.70;;;4.20;99.90;;;;;;5020068;28;20074;-80
2022/02/11 07:35:45;;;;;;;4.25;3.35;;;4.10;99.90;;;;;;5019008;28;20022;-82
2022/02/11 07:38:11;;;;;;;4.85;3.40;;;4.10;99.90;;;;;;5019566;28;20026;-81
2022/02/11 07:40:39;;;;;;;5.30;3.05;;;4.10;99.90;;;;;;5002657;28;20027;-81
2022/02/11 07:43:08;;;;;;;6.22;3.47;;;4.10;99.90;;;;;;5019380;28;20017;-84
2022/02/11 07:45:34;;;;;;;5.15;3.30;;;4.10;99.90;;;;;;5018962;28;20018;-81
2022/02/11 07:48:00;;;;;;;6.43;3.80;;;4.00;99.90;;;;;;5022805;28;20438;-80
2022/02/11 07:50:26;;;;;;;6.50;3.83;;;4.00;99.90;;;;;;5036792;28;20030;-82
2022/02/11 07:52:52;;;;;;;3.70;3.00;;;4.00;99.90;;;;;;5021057;28;20021;-80
2022/02/11 07:55:19;;;;;;;5.97;3.10;;;4.00;99.90;;;;;;5021714;28;20038;-81
2022/02/11 07:57:45;;;;;;;4.82;3.63;;;4.00;99.90;;;;;;5009421;28;20039;-80
2022/02/11 08:00:11;;;;;;;5.32;2.60;;;4.00;99.90;;;;;;5016512;28;20041;-79
2022/02/11 08:02:37;;;;;;;4.18;3.08;;;4.00;99.90;;;;;;5029977;28;20022;-80
2022/02/11 08:05:06;;;;;;;5.18;3.17;;;3.90;99.90;;;;;;5038483;28;20041;-82
2022/02/11 08:07:35;;;;;;;6.75;2.83;;;3.90;99.90;;;;;;5006653;28;20022;-81
2022/02/11 08:10:01;;;;;;;3.17;2.72;;;3.90;99.90;;;;;;5016028;28;20033;-81
2022/02/11 08:12:34;;;;;;;4.95;2.92;;;3.80;99.90;;;;;;5018266;28;20064;-80
2022/02/11 08:15:17;;;;;;;5.25;2.78;;;3.80;99.90;;;;;;5034345;28;20027;-80
2022/02/11 08:17:43;;;;;;;4.20;2.75;;;3.80;99.90;;;;;;5021136;28;20038;-82
2022/02/11 08:20:10;;;;;;;3.15;2.28;;;3.70;99.90;;;;;;5021245;28;20024;-80
2022/02/11 08:22:35;;;;;;;3.95;2.22;;;3.70;99.90;;;;;;5037363;28;20040;-83
2022/02/11 08:25:01;;;;;;;3.28;2.10;;;3.70;99.90;;;;;;5035988;28;20030;-82
2022/02/11 08:27:29;;;;;;;2.25;2.03;;;3.60;99.90;;;;;;5019857;28;20014;-79
2022/02/11 08:29:57;;;;;;;2.90;1.83;;;3.60;99.90;;;;;;5021516;28;20025;-80
2022/02/11 08:32:24;;;;;;;3.55;2.42;;;3.60;99.90;;;;;;5020813;28;20030;-79
2022/02/11 08:34:57;;;;;;;4.85;1.58;;;3.50;99.90;;;;;;5021530;28;20037;-81
2022/02/11 08:37:23;;;;;;;;;;;3.60;99.90;;;;;;5021251;28;20092;-80
2022/02/11 08:39:49;;;;;;;1.75;1.63;;;3.50;99.90;;;;;;5037868;28;19908;-79
2022/02/11 08:42:21;;;;;;;1.55;1.35;;;3.50;99.90;;;;;;5021001;28;20022;-80
2022/02/11 08:44:47;;;;;;;2.25;1.50;;;3.40;99.90;;;;;;5020620;28;20018;-80
2022/02/11 08:47:13;;;;;;;2.05;1.65;;;3.30;99.90;;;;;;5037786;28;20060;-80
2022/02/11 08:49:41;;;;;;;2.35;1.95;;;3.30;99.90;;;;;;5037334;28;20057;-82
2022/02/11 08:52:08;;;;;;;2.42;1.98;;;3.20;99.90;;;;;;5020491;28;20022;-81
2022/02/11 08:54:34;;;;;;;2.38;1.95;;;3.20;99.90;;;;;;5037620;28;20033;-81
2022/02/11 08:57:00;;;;;;;1.70;1.60;;;3.30;99.90;;;;;;5037241;28;20054;-84
2022/02/11 08:59:26;;;;;;;2.65;2.25;;;3.30;99.90;;;;;;5036636;28;20026;-81
2022/02/11 09:01:52;;;;;;;5.78;2.83;;;3.50;99.90;;;;;;5037573;28;20025;-82
2022/02/11 09:04:18;;;;;;;4.40;2.00;;;3.70;99.90;;;;;;5037002;28;20030;-83
2022/02/11 09:06:44;;;;;;;4.35;2.10;;;4.00;99.90;;;;;;5036819;28;20038;-82
2022/02/11 09:09:10;;;;;;;2.00;1.70;;;4.20;99.90;;;;;;5024782;28;20065;-84
2022/02/11 09:11:36;;;;;;;2.38;2.17;;;4.30;99.90;;;;;;5021709;28;20046;-83
2022/02/11 09:14:02;;;;;;;2.92;1.88;;;4.40;99.90;;;;;;5029262;28;20049;-82
2022/02/11 09:16:30;;;;;;;2.95;2.30;;;4.50;99.90;;;;;;5034361;28;20022;-83
2022/02/11 09:18:56;;;;;;;1.83;1.70;;;4.60;99.90;;;;;;5025969;28;20014;-83
2022/02/11 09:21:22;;;;;;;2.15;1.73;;;4.60;99.90;;;;;;5024795;28;20033;-84
2022/02/11 09:23:47;;;;;;;1.85;1.75;;;4.60;99.90;;;;;;5022581;28;20022;-82
2022/02/11 09:26:15;;;;;;;3.00;2.70;;;4.50;99.90;;;;;;5027398;28;20018;-84
2022/02/11 09:28:41;;;;;;;2.65;2.13;;;4.50;99.90;;;;;;5026292;28;20041;-82
2022/02/11 09:31:08;;;;;;;1.42;1.33;;;4.50;99.90;;;;;;5036365;28;20065;-84
2022/02/11 09:33:34;;;;;;;4.47;1.52;;;4.50;99.90;;;;;;5019156;28;20017;-81
2022/02/11 09:36:00;;;;;;;2.03;1.77;;;4.30;99.90;;;;;;5010023;28;20018;-83
2022/02/11 09:38:26;;;;;;;4.32;1.50;;;4.20;99.90;;;;;;5019166;28;20053;-83
2022/02/11 09:40:53;;;;;;;2.33;2.05;;;4.30;99.90;;;;;;5036668;28;20046;-83
2022/02/11 09:43:24;;;;;;;2.05;1.75;;;4.40;99.90;;;;;;5038328;28;20146;-84
2022/02/11 09:45:51;;;;;;;1.92;1.80;;;4.30;99.90;;;;;;5021664;28;20078;-83
2022/02/11 09:48:17;;;;;;;1.88;1.70;;;4.30;99.90;;;;;;5037574;28;20018;-83
2022/02/11 09:50:43;;;;;;;2.08;1.88;;;4.40;99.90;;;;;;5027652;28;20073;-82
2022/02/11 09:53:09;;;;;;;2.05;1.60;;;4.60;99.90;;;;;;5040044;28;20021;-84
2022/02/11 09:55:37;;;;;;;1.27;1.17;;;4.90;99.90;;;;;;5021936;28;20068;-82
2022/02/11 09:58:14;;;;;;;5.57;1.48;;;5.00;96.00;;;;;;5038320;28;20033;-82
2022/02/11 10:00:44;;;;;;;1.40;1.30;;;4.90;96.20;;;;;;5023445;28;20030;-83
2022/02/11 10:03:21;;;;;;;2.15;1.95;;;4.80;96.10;;;;;;5003521;28;20054;-82
2022/02/11 10:05:47;;;;;;;2.47;1.50;;;4.90;96.70;;;;;;5025410;28;20018;-83
2022/02/11 10:08:15;;;;;;;5.13;1.55;;;5.00;94.90;;;;;;5023998;28;20038;-83
2022/02/11 10:10:47;;;;;;;2.08;1.80;;;5.20;92.40;;;;;;5017508;28;20089;-83
2022/02/11 10:13:17;;;;;;;;;;;5.20;93.20;;;;;;5028038;28;20042;-82
2022/02/11 10:15:49;;;;;;;1.65;1.55;;;5.40;92.60;;;;;;5021667;28;20032;-84
2022/02/11 10:18:25;;;;;;;2.58;2.00;;;5.60;91.70;;;;;;5020914;28;20125;-84
2022/02/11 10:20:53;;;;;;;1.65;1.52;;;5.70;91.10;;;;;;5037999;28;20029;-84
2022/02/11 10:23:23;;;;;;;3.95;1.80;;;5.60;90.40;;;;;;5021207;28;20054;-82
2022/02/11 10:26:13;;;;;;;2.22;1.27;;;5.60;89.80;;;;;;5031489;28;20023;-82
2022/02/11 10:28:45;;;;;;;3.63;1.60;;;5.60;90.10;;;;;;5033129;28;20014;-83
2022/02/11 10:31:23;;;;;;;1.92;1.50;;;5.60;90.20;;;;;;5037548;28;20017;-84
2022/02/11 10:34:11;;;;;;;3.13;1.33;;;5.50;89.20;;;;;;5015230;28;20034;-82
2022/02/11 10:36:39;;;;;;;1.85;1.73;;;5.30;88.30;;;;;;5023683;28;20034;-84
2022/02/11 10:39:13;;;;;;;3.30;1.55;;;5.00;87.90;;;;;;5020876;28;20026;-82
2022/02/11 10:41:53;;;;;;;3.10;2.15;;;4.90;87.30;;;;;;5037349;28;20038;-82
2022/02/11 10:44:23;;;;;;;4.18;1.65;;;4.80;88.80;;;;;;5037401;28;20022;-82
2022/02/11 10:46:52;;;;;;;2.53;1.48;;;4.80;88.40;;;;;;5005006;28;20058;-83
2022/02/11 10:49:28;;;;;;;2.25;1.60;;;5.00;87.80;;;;;;4999852;28;20026;-82
2022/02/11 10:51:54;;;;;;;6.28;1.83;;;5.20;84.80;;;;;;4999447;28;20042;-81
2022/02/11 10:54:24;;;;;;;2.40;1.45;;;5.20;83.40;;;;;;5014560;28;20027;-83
2022/02/11 10:56:55;;;;;;;4.20;1.52;;;5.10;83.10;;;;;;5034576;28;20028;-81
2022/02/11 10:59:35;;;;;;;5.00;1.83;;;5.00;83.00;;;;;;5014442;28;20110;-81
2022/02/11 11:02:23;;;;;;;3.38;1.75;;;5.10;81.50;;;;;;5027125;28;20056;-82
2022/02/11 11:04:51;;;;;;;1.83;1.73;;;5.20;80.70;;;;;;5033245;28;20022;-82
2022/02/11 11:07:29;;;;;;;5.38;1.90;;;5.20;81.20;;;;;;5024350;28;20031;-82
2022/02/11 11:09:56;;;;;;;1.98;1.40;;;5.30;81.30;;;;;;4999687;28;20019;-80
2022/02/11 11:12:25;;;;;;;3.00;1.92;;;5.40;81.60;;;;;;4999415;28;20030;-82
2022/02/11 11:14:55;;;;;;;4.95;2.10;;;5.40;80.20;;;;;;5015199;28;20018;-83
2022/02/11 11:17:21;;;;;;;2.88;1.70;;;5.20;80.30;;;;;;5023375;28;20041;-82
2022/02/11 11:19:50;;;;;;;3.40;1.45;;;5.00;81.30;;;;;;5013743;28;20066;-83
2022/02/11 11:22:20;;;;;;;3.45;1.70;;;5.40;81.30;;;;;;5029983;28;20025;-83
2022/02/11 11:24:51;;;;;;;5.72;2.00;;;5.60;80.40;;;;;;5017922;28;20026;-83
2022/02/11 11:27:43;;;;;;;3.60;1.80;;;5.80;79.00;;;;;;5016429;28;20034;-83
2022/02/11 11:30:30;;;;;;;3.72;1.60;;;6.20;78.40;;;;;;5027338;28;20078;-82
2022/02/11 11:33:07;;;;;;;3.35;1.30;;;6.60;76.10;;;;;;5020107;28;20466;-83
2022/02/11 11:36:01;;;;;;;4.30;2.05;;;6.90;72.80;;;;;;5014431;28;20124;-83
2022/02/11 11:38:44;;;;;;;4.28;2.20;;;7.00;73.30;;;;;;5028342;28;20026;-83
2022/02/11 11:41:26;;;;;;;3.33;1.80;;;7.10;71.00;;;;;;5004601;28;20083;-83
2022/02/11 11:43:54;;;;;;;3.50;1.73;;;7.10;71.00;;;;;;5024762;28;20029;-83
2022/02/11 11:46:27;;;;;;;2.88;1.85;;;7.20;70.50;;;;;;5011270;28;20034;-83
2022/02/11 11:49:07;;;;;;;6.25;1.90;;;7.30;69.80;;;;;;5026059;28;20038;-82
2022/02/11 11:51:58;;;;;;;1.75;1.60;;;7.30;69.50;;;;;;5029040;28;20038;-85
2022/02/11 11:54:31;;;;;;;3.85;1.27;;;7.70;67.60;;;;;;5025640;28;20111;-86
2022/02/11 11:56:59;;;;;;;2.78;1.40;;;8.00;66.50;;;;;;5013564;28;20045;-82
2022/02/11 11:59:50;;;;;;;3.35;1.60;;;8.10;67.30;;;;;;5013770;28;20042;-82
2022/02/11 12:02:28;;;;;;;5.53;1.60;;;8.30;64.50;;;;;;4995782;28;20034;-82
2022/02/11 12:04:58;;;;;;;3.97;1.45;;;7.90;64.20;;;;;;5011532;28;20042;-82
2022/02/11 12:07:26;;;;;;;7.80;1.52;;;7.30;65.50;;;;;;5011385;28;20037;-82
2022/02/11 12:09:56;;;;;;;2.90;1.27;;;7.20;65.40;;;;;;4994910;28;20092;-82
2022/02/11 12:12:24;;;;;;;4.53;1.27;;;7.20;66.00;;;;;;5028451;28;20022;-83
2022/02/11 12:14:53;;;;;;;4.57;1.38;;;7.00;66.80;;;;;;5020582;28;20022;-82
2022/02/11 12:17:21;;;;;;;3.47;1.40;;;6.60;67.60;;;;;;5038536;28;20030;-81
2022/02/11 12:19:48;;;;;;;3.67;1.35;;;6.30;68.30;;;;;;5021671;28;20026;-82
2022/02/11 12:22:16;;;;;;;3.00;1.73;;;6.30;69.60;;;;;;5038131;28;20041;-81
2022/02/11 12:27:38;;;;;;;3.33;1.30;;;6.30;69.10;;;;;;5032221;28;20041;-82
2022/02/11 12:30:14;;;;;;;5.03;2.15;;;6.60;70.30;;;;;;5032232;28;20141;-81
2022/02/11 12:32:43;;;;;;;4.50;1.30;;;6.80;68.20;;;;;;5032859;28;20261;-81
2022/02/11 12:35:12;;;;;;;2.08;1.02;;;6.90;67.00;;;;;;5030995;28;20020;-81
2022/02/11 12:37:44;;;;;;;5.05;1.63;;;6.90;67.00;;;;;;5021476;28;20033;-80
2022/02/11 12:40:24;;;;;;;2.08;1.02;;;7.10;64.60;;;;;;5020174;28;20034;-81
2022/02/11 12:42:54;;;;;;;4.13;1.25;;;7.30;64.70;;;;;;5032379;28;20131;-83
2022/02/11 12:45:32;;;;;;;2.25;1.17;;;7.30;63.00;;;;;;5032023;28;20031;-83
2022/02/11 12:47:59;;;;;;;2.97;1.13;;;7.20;64.10;;;;;;4996315;28;20034;-81
2022/02/11 12:50:37;;;;;;;4.15;1.27;;;7.10;64.00;;;;;;4996080;28;20045;-81
2022/02/11 12:53:05;;;;;;;4.28;1.25;;;7.10;63.70;;;;;;4995599;28;20028;-82
2022/02/11 12:55:36;;;;;;;2.92;1.42;;;6.90;64.90;;;;;;5028212;28;20046;-81
2022/02/11 12:58:03;;;;;;;7.45;1.42;;;6.70;65.00;;;;;;5032169;28;20093;-82
2022/02/11 13:00:31;;;;;;;9.73;1.60;;;6.50;65.60;;;;;;5033003;28;20042;-82
2022/02/11 13:03:00;;;;;;;2.95;1.50;;;6.40;65.00;;;;;;5013258;28;20074;-81
2022/02/11 13:05:32;;;;;;;2.10;1.08;;;6.30;66.40;;;;;;5032108;28;20002;-82
2022/02/11 13:08:00;;;;;;;;;;;6.30;66.50;;;;;;5033924;28;20030;-81
2022/02/11 13:10:29;;;;;;;4.10;1.70;;;6.30;66.30;;;;;;5033572;28;19910;-81
2022/02/11 13:13:15;;;;;;;5.28;1.50;;;6.30;67.10;;;;;;5033286;28;20022;-82
2022/02/11 13:15:45;;;;;;;3.92;1.10;;;6.30;67.40;;;;;;5032685;28;20009;-83
2022/02/11 13:20:44;;;;;;;4.07;1.13;;;6.40;66.10;;;;;;5016674;28;20057;-83
2022/02/11 13:23:15;;;;;;;3.08;1.00;;;6.40;64.60;;;;;;5020661;28;20107;-82
2022/02/11 13:25:42;;;;;;;3.67;1.00;;;6.30;64.90;;;;;;5005456;28;20432;-81
2022/02/11 13:28:11;;;;;;;2.90;1.10;;;6.20;64.80;;;;;;5021406;28;20109;-82
2022/02/11 13:30:40;;;;;;;4.22;1.25;;;6.20;64.50;;;;;;5007805;28;20555;-84
2022/02/11 13:33:26;;;;;;;5.20;1.23;;;6.00;65.00;;;;;;5017019;28;20018;-83
2022/02/11 13:35:56;;;;;;;2.60;1.13;;;5.90;65.70;;;;;;5017340;28;20029;-82
2022/02/11 13:38:33;;;;;;;5.97;1.58;;;5.90;65.70;;;;;;5015371;28;20036;-82
2022/02/11 13:41:07;;;;;;;4.55;1.00;;;5.80;65.90;;;;;;5020341;28;20029;-83
2022/02/11 13:43:53;;;;;;;2.78;1.20;;;5.80;66.70;;;;;;5022686;28;20056;-82
2022/02/11 13:46:34;;;;;;;3.05;1.42;;;5.80;66.70;;;;;;5025331;28;20022;-82
2022/02/11 13:49:08;;;;;;;2.85;0.98;;;5.70;66.90;;;;;;5022348;28;20085;-81
2022/02/11 13:51:35;;;;;;;5.70;1.40;;;5.70;67.10;;;;;;5031887;28;20025;-81
2022/02/11 13:54:16;;;;;;;3.08;1.02;;;5.60;67.70;;;;;;5029042;28;20041;-82
2022/02/11 13:56:45;;;;;;;4.03;1.33;;;5.50;68.90;;;;;;5029161;28;20022;-81
2022/02/11 13:59:31;;;;;;;4.68;1.10;;;5.50;69.00;;;;;;5023950;28;20077;-84
2022/02/11 14:02:10;;;;;;;2.78;1.48;;;5.40;69.40;;;;;;5025975;28;20069;-82
2022/02/11 14:04:36;;;;;;;3.30;1.00;;;5.40;68.20;;;;;;5023675;28;20021;-82
2022/02/11 14:07:03;;;;;;;2.70;0.90;;;5.40;68.90;;;;;;5015404;28;20113;-83
2022/02/11 14:09:36;;;;;;;4.30;1.15;;;5.40;68.90;;;;;;5022121;28;20378;-84
2022/02/11 14:12:25;;;;;;;5.50;1.25;;;5.40;69.10;;;;;;5022066;28;20339;-84
2022/02/11 14:14:58;;;;;;;5.68;1.20;;;5.40;68.30;;;;;;5021816;28;20459;-84
2022/02/11 14:17:26;;;;;;;3.78;1.13;;;5.40;68.40;;;;;;5020024;28;20054;-84
2022/02/11 14:19:51;;;;;;;3.28;1.10;;;5.40;68.70;;;;;;5019546;28;20030;-84
2022/02/11 14:22:17;;;;;;;6.82;0.70;;;5.40;68.60;;;;;;5019109;28;20053;-85
2022/02/11 14:24:44;;;;;;;4.55;1.02;;;5.50;69.10;;;;;;5020310;28;20034;-86
2022/02/11 14:27:10;;;;;;;5.70;1.00;;;5.60;68.60;;;;;;5020241;28;20029;-84
2022/02/11 14:29:36;;;;;;;5.05;1.17;;;5.60;68.00;;;;;;5019881;28;20026;-83
2022/02/11 14:32:04;;;;;;;9.40;1.48;;;5.60;68.20;;;;;;5023742;28;20010;-85
2022/02/11 14:34:30;;;;;;;5.88;0.90;;;5.70;67.10;;;;;;5022488;28;20111;-84
2022/02/11 14:36:56;;;;;;;6.38;1.15;;;5.60;67.10;;;;;;5015381;28;20017;-83
2022/02/11 14:39:22;;;;;;;5.90;1.00;;;5.60;67.00;;;;;;5023383;28;20079;-82
2022/02/11 14:41:51;;;;;;;5.47;2.20;;;5.60;66.20;;;;;;5024026;28;20022;-84
2022/02/11 14:44:19;;;;;;;7.85;1.13;;;5.50;66.70;;;;;;5023737;28;20486;-83
2022/02/11 14:46:46;;;;;;;1.70;0.90;;;5.60;66.70;;;;;;5023769;28;20033;-85
2022/02/11 14:49:12;;;;;;;8.73;0.90;;;5.60;67.30;;;;;;5024064;28;20030;-86
2022/02/11 14:51:38;;;;;;;7.82;1.50;;;5.60;66.80;;;;;;5016296;28;20026;-85
2022/02/11 14:54:08;;;;;;;2.92;1.20;;;5.70;66.30;;;;;;5007243;28;20089;-86
2022/02/11 14:56:39;;;;;;;4.32;1.00;;;5.80;65.70;;;;;;5003375;28;20090;-84
2022/02/11 14:59:08;;;;;;;5.47;1.08;;;5.80;66.00;;;;;;5001897;28;20034;-84
2022/02/11 15:01:41;;;;;;;4.68;1.00;;;5.80;66.30;;;;;;5005155;28;20468;-84
2022/02/11 15:04:07;;;;;;;3.35;1.13;;;5.80;67.30;;;;;;5004181;28;20085;-85
2022/02/11 15:06:33;;;;;;;4.53;1.23;;;5.80;68.30;;;;;;5014898;28;20038;-84
2022/02/11 15:09:03;;;;;;;2.45;0.93;;;5.80;68.70;;;;;;5019886;28;20113;-84
2022/02/11 15:11:29;;;;;;;4.15;0.95;;;5.70;69.20;;;;;;5029799;28;20462;-84
2022/02/11 15:13:55;;;;;;;6.13;1.27;;;5.60;69.50;;;;;;5024441;28;20030;-84
2022/02/11 15:16:21;;;;;;;3.67;1.00;;;5.40;69.50;;;;;;5020310;28;20080;-84
2022/02/11 15:18:47;;;;;;;4.25;0.93;;;5.20;70.10;;;;;;5020662;28;20068;-84
2022/02/11 15:21:14;;;;;;;3.70;1.05;;;5.10;70.80;;;;;;4985840;28;20035;-85
2022/02/11 15:23:40;;;;;;;3.88;0.77;;;4.90;71.40;;;;;;4983729;28;20022;-83
2022/02/11 15:26:08;;;;;;;4.63;1.52;;;4.80;72.00;;;;;;5016177;28;20084;-84
2022/02/11 15:28:38;;;;;;;2.03;1.02;;;4.70;72.50;;;;;;5019081;28;20113;-85
2022/02/11 15:31:04;;;;;;;3.45;1.02;;;4.70;72.20;;;;;;5019189;28;20034;-86
2022/02/11 15:33:31;;;;;;;5.13;1.13;;;4.70;72.70;;;;;;5022560;28;20014;-83
2022/02/11 15:35:57;;;;;;;4.20;1.10;;;4.60;73.00;;;;;;5020403;28;20022;-83
2022/02/11 15:38:23;;;;;;;4.03;1.10;;;4.60;73.50;;;;;;5019628;28;20022;-83
2022/02/11 15:40:49;;;;;;;2.00;1.02;;;4.60;74.00;;;;;;5021194;28;20041;-84
2022/02/11 15:43:15;;;;;;;7.03;1.40;;;4.50;73.70;;;;;;5020861;28;20026;-84
2022/02/11 15:45:45;;;;;;;4.30;1.30;;;4.50;73.60;;;;;;5020851;28;20355;-85
2022/02/11 15:48:14;;;;;;;5.13;1.10;;;4.50;73.40;;;;;;5004944;28;20053;-86
2022/02/11 15:50:41;;;;;;;6.07;1.00;;;4.50;73.40;;;;;;4985101;28;20054;-87
2022/02/11 15:53:08;;;;;;;4.40;0.90;;;4.50;72.90;;;;;;4999714;28;20109;-85
2022/02/11 15:55:33;;;;;;;5.93;1.00;;;4.40;73.20;;;;;;5015153;28;20022;-85
2022/02/11 15:57:59;;;;;;;2.95;0.82;;;4.40;73.10;;;;;;5023247;28;20355;-85
2022/02/11 16:00:28;;;;;;;2.40;0.80;;;4.30;73.30;;;;;;5012298;28;20037;-84
2022/02/11 16:02:54;;;;;;;6.47;1.23;;;4.30;73.80;;;;;;5007494;28;20045;-84
2022/02/11 16:05:20;;;;;;;2.83;1.20;;;4.30;73.30;;;;;;5010760;28;20018;-84
2022/02/11 16:07:45;;;;;;;3.17;0.85;;;4.40;73.10;;;;;;5010055;28;20065;-84
2022/02/11 16:10:12;;;;;;;2.17;0.73;;;4.30;73.10;;;;;;5002566;28;20059;-83
2022/02/11 16:12:37;;;;;;;3.50;0.82;;;4.30;73.40;;;;;;4987599;28;20042;-84
2022/02/11 16:15:04;;;;;;;3.72;0.98;;;4.30;73.60;;;;;;4985961;28;20034;-84
2022/02/11 16:17:32;;;;;;;4.95;1.00;;;4.20;73.80;;;;;;4987606;28;20022;-84
2022/02/11 16:19:59;;;;;;;3.50;1.17;;;4.10;73.90;;;;;;4985143;28;20065;-85
2022/02/11 16:22:26;;;;;;;4.88;1.15;;;4.10;73.90;;;;;;5004286;28;20034;-85
2022/02/11 16:24:57;;;;;;;4.00;1.00;;;4.10;73.80;;;;;;5001823;28;20483;-81
2022/02/11 16:27:23;;;;;;;4.43;0.88;;;4.10;73.80;;;;;;5001457;28;20583;-81
2022/02/11 16:29:48;;;;;;;1.23;1.08;;;4.00;74.20;;;;;;5000594;28;20162;-82
2022/02/11 16:32:14;;;;;;;3.30;0.95;;;3.90;74.40;;;;;;4985612;28;20018;-83
2022/02/11 16:34:40;;;;;;;4.13;1.45;;;3.80;74.90;;;;;;4979486;28;20027;-83
2022/02/11 16:37:08;;;;;;;4.35;1.35;;;3.70;75.50;;;;;;4979956;28;20590;-82
2022/02/11 16:39:34;;;;;;;2.13;1.10;;;3.70;75.80;;;;;;4978345;28;20031;-84
2022/02/11 16:41:59;;;;;;;6.28;1.10;;;3.70;76.20;;;;;;4979049;28;20033;-84
2022/02/11 16:44:25;;;;;;;3.13;1.08;;;3.70;76.10;;;;;;4978726;28;20034;-82
2022/02/11 16:46:51;;;;;;;3.88;0.88;;;3.70;76.10;;;;;;4979009;28;20364;-82
2022/02/11 16:49:18;;;;;;;5.32;1.08;;;3.70;76.60;;;;;;4980038;28;20014;-83
2022/02/11 16:51:47;;;;;;;2.38;0.88;;;3.60;76.80;;;;;;4983508;28;20030;-81